sensor_id;sensor_type;location;lat;lon;timestamp;temperature;humidity
45549;DHT22;31270;48.328;10.096;2024-03-23T00:52:52;9.30;99.90
45549;DHT22;31270;48.328;10.096;2024-03-23T00:55:37;9.30;99.90
45549;DHT22;31270;48.328;10.096;2024-03-23T00:58:22;9.30;99.90
45549;DHT22;31270;48.328;10.096;2024-03-23T01:01:06;9.20;99.90
45549;DHT22;31270;48.328;10.096;2024-03-23T01:03:53;9.20;99.90
45549;DHT22;31270;48.328;10.096;2024-03-23T01:06:38;9.20;99.90
45549;DHT22;31270;48.328;10.096;2024-03-23T01:09:22;9.20;99.90
45549;DHT22;31270;48.328;10.096;2024-03-23T01:12:06;9.10;99.90
45549;DHT22;31270;48.328;10.096;2024-03-23T01:14:51;9.10;99.90
45549;DHT22;31270;48.328;10.096;2024-03-23T01:17:36;9.00;99.90
45549;DHT22;31270;48.328;10.096;2024-03-23T01:20:21;9.00;99.90
45549;DHT22;31270;48.328;10.096;2024-03-23T01:23:10;8.90;99.90
45549;DHT22;31270;48.328;10.096;2024-03-23T01:25:56;8.90;99.90
45549;DHT22;31270;48.328;10.096;2024-03-23T01:28:41;8.80;99.90
45549;DHT22;31270;48.328;10.096;2024-03-23T01:31:27;8.80;99.90
45549;DHT22;31270;48.328;10.096;2024-03-23T01:34:13;8.70;99.90
45549;DHT22;31270;48.328;10.096;2024-03-23T01:36:58;8.70;99.90
45549;DHT22;31270;48.328;10.096;2024-03-23T01:39:42;8.60;99.90
45549;DHT22;31270;48.328;10.096;2024-03-23T01:42:26;8.60;99.90
45549;DHT22;31270;48.328;10.096;2024-03-23T01:45:10;8.60;99.90
45549;DHT22;31270;48.328;10.096;2024-03-23T01:47:54;8.50;99.90
45549;DHT22;31270;48.328;10.096;2024-03-23T01:50:39;8.50;99.90
45549;DHT22;31270;48.328;10.096;2024-03-23T01:53:23;8.40;99.90
45549;DHT22;31270;48.328;10.096;2024-03-23T01:56:07;8.50;99.90
45549;DHT22;31270;48.328;10.096;2024-03-23T01:58:52;8.50;99.90
45549;DHT22;31270;48.328;10.096;2024-03-23T02:01:36;8.50;99.90
45549;DHT22;31270;48.328;10.096;2024-03-23T02:04:20;8.50;99.90
45549;DHT22;31270;48.328;10.096;2024-03-23T02:07:05;8.40;99.90
45549;DHT22;31270;48.328;10.096;2024-03-23T02:09:51;8.50;99.90
45549;DHT22;31270;48.328;10.096;2024-03-23T02:12:36;8.40;99.90
45549;DHT22;31270;48.328;10.096;2024-03-23T02:15:20;8.40;99.90
45549;DHT22;31270;48.328;10.096;2024-03-23T02:18:05;8.40;99.90
45549;DHT22;31270;48.328;10.096;2024-03-23T02:20:49;8.40;99.90
45549;DHT22;31270;48.328;10.096;2024-03-23T02:23:33;8.40;99.90
45549;DHT22;31270;48.328;10.096;2024-03-23T02:26:17;8.40;99.90
45549;DHT22;31270;48.328;10.096;2024-03-23T02:29:01;8.30;99.90
45549;DHT22;31270;48.328;10.096;2024-03-23T02:31:45;8.20;99.90
45549;DHT22;31270;48.328;10.096;2024-03-23T02:34:29;8.20;99.90
45549;DHT22;31270;48.328;10.096;2024-03-23T02:37:13;8.20;99.90
45549;DHT22;31270;48.328;10.096;2024-03-23T02:39:58;8.20;99.90
45549;DHT22;31270;48.328;10.096;2024-03-23T02:42:43;8.20;99.90
45549;DHT22;31270;48.328;10.096;2024-03-23T02:45:27;8.30;99.90
45549;DHT22;31270;48.328;10.096;2024-03-23T02:48:12;8.30;99.90
45549;DHT22;31270;48.328;10.096;2024-03-23T02:50:56;8.20;99.90
45549;DHT22;31270;48.328;10.096;2024-03-23T02:53:41;8.20;99.90
45549;DHT22;31270;48.328;10.096;2024-03-23T02:56:25;8.20;99.90
45549;DHT22;31270;48.328;10.096;2024-03-23T02:59:10;8.20;99.90
45549;DHT22;31270;48.328;10.096;2024-03-23T03:01:54;8.20;99.90
45549;DHT22;31270;48.328;10.096;2024-03-23T03:04:40;8.20;99.90
45549;DHT22;31270;48.328;10.096;2024-03-23T03:07:25;8.20;99.90
45549;DHT22;31270;48.328;10.096;2024-03-23T03:10:09;8.20;99.90
45549;DHT22;31270;48.328;10.096;2024-03-23T03:12:55;8.10;99.90
45549;DHT22;31270;48.328;10.096;2024-03-23T03:15:41;8.10;99.90
45549;DHT22;31270;48.328;10.096;2024-03-23T03:18:26;8.10;99.90
45549;DHT22;31270;48.328;10.096;2024-03-23T03:21:11;8.00;99.90
45549;DHT22;31270;48.328;10.096;2024-03-23T03:23:55;8.00;99.90
45549;DHT22;31270;48.328;10.096;2024-03-23T03:26:40;8.00;99.90
45549;DHT22;31270;48.328;10.096;2024-03-23T03:29:24;8.00;99.90
45549;DHT22;31270;48.328;10.096;2024-03-23T03:32:09;8.00;99.90
45549;DHT22;31270;48.328;10.096;2024-03-23T03:34:54;8.00;99.90
45549;DHT22;31270;48.328;10.096;2024-03-23T03:37:38;8.00;99.90
45549;DHT22;31270;48.328;10.096;2024-03-23T03:40:22;8.00;99.90
45549;DHT22;31270;48.328;10.096;2024-03-23T03:43:06;8.10;99.90
45549;DHT22;31270;48.328;10.096;2024-03-23T03:45:57;8.00;99.90
45549;DHT22;31270;48.328;10.096;2024-03-23T03:48:41;8.00;99.90
45549;DHT22;31270;48.328;10.096;2024-03-23T03:51:25;8.00;99.90
45549;DHT22;31270;48.328;10.096;2024-03-23T03:54:09;8.00;99.90
45549;DHT22;31270;48.328;10.096;2024-03-23T03:56:54;8.10;99.90
45549;DHT22;31270;48.328;10.096;2024-03-23T03:59:38;8.00;99.90
45549;DHT22;31270;48.328;10.096;2024-03-23T04:02:22;8.00;99.90
45549;DHT22;31270;48.328;10.096;2024-03-23T04:05:07;8.10;99.90
45549;DHT22;31270;48.328;10.096;2024-03-23T04:07:55;8.10;99.90
45549;DHT22;31270;48.328;10.096;2024-03-23T04:10:39;8.10;99.90
45549;DHT22;31270;48.328;10.096;2024-03-23T04:13:24;8.10;99.90
45549;DHT22;31270;48.328;10.096;2024-03-23T04:16:08;8.10;99.90
45549;DHT22;31270;48.328;10.096;2024-03-23T04:18:53;8.20;99.90
45549;DHT22;31270;48.328;10.096;2024-03-23T04:21:38;8.10;99.90
45549;DHT22;31270;48.328;10.096;2024-03-23T04:24:22;8.20;99.90
45549;DHT22;31270;48.328;10.096;2024-03-23T04:27:06;8.10;99.90
45549;DHT22;31270;48.328;10.096;2024-03-23T04:29:51;8.10;99.90
45549;DHT22;31270;48.328;10.096;2024-03-23T04:32:37;8.10;99.90
45549;DHT22;31270;48.328;10.096;2024-03-23T04:35:21;8.20;99.90
45549;DHT22;31270;48.328;10.096;2024-03-23T04:38:08;8.20;99.90
45549;DHT22;31270;48.328;10.096;2024-03-23T04:40:57;8.20;99.90
45549;DHT22;31270;48.328;10.096;2024-03-23T04:43:42;8.20;99.90
45549;DHT22;31270;48.328;10.096;2024-03-23T04:46:26;8.20;99.90
45549;DHT22;31270;48.328;10.096;2024-03-23T04:49:11;8.20;99.90
45549;DHT22;31270;48.328;10.096;2024-03-23T04:51:55;8.30;99.90
45549;DHT22;31270;48.328;10.096;2024-03-23T04:54:39;8.50;99.90
45549;DHT22;31270;48.328;10.096;2024-03-23T04:57:27;8.50;99.90
45549;DHT22;31270;48.328;10.096;2024-03-23T05:00:11;8.40;99.90
45549;DHT22;31270;48.328;10.096;2024-03-23T05:03:04;8.50;99.90
45549;DHT22;31270;48.328;10.096;2024-03-23T05:05:49;8.50;99.90
45549;DHT22;31270;48.328;10.096;2024-03-23T05:08:33;8.60;99.90
45549;DHT22;31270;48.328;10.096;2024-03-23T05:11:17;8.80;99.90
45549;DHT22;31270;48.328;10.096;2024-03-23T05:14:01;8.80;99.90
45549;DHT22;31270;48.328;10.096;2024-03-23T05:16:47;8.90;99.90
45549;DHT22;31270;48.328;10.096;2024-03-23T05:19:31;8.90;99.90
45549;DHT22;31270;48.328;10.096;2024-03-23T05:22:16;9.00;99.90
45549;DHT22;31270;48.328;10.096;2024-03-23T05:25:00;9.20;99.90
45549;DHT22;31270;48.328;10.096;2024-03-23T05:27:44;9.20;99.90
45549;DHT22;31270;48.328;10.096;2024-03-23T05:30:29;9.20;99.90
45549;DHT22;31270;48.328;10.096;2024-03-23T05:33:13;9.30;99.90
45549;DHT22;31270;48.328;10.096;2024-03-23T05:35:58;9.50;99.90
45549;DHT22;31270;48.328;10.096;2024-03-23T05:38:42;9.40;99.90
45549;DHT22;31270;48.328;10.096;2024-03-23T05:41:27;9.50;99.90
45549;DHT22;31270;48.328;10.096;2024-03-23T05:44:11;9.60;99.90
45549;DHT22;31270;48.328;10.096;2024-03-23T05:46:55;9.70;99.90
45549;DHT22;31270;48.328;10.096;2024-03-23T05:49:39;9.80;99.90
45549;DHT22;31270;48.328;10.096;2024-03-23T05:52:23;9.90;99.90
45549;DHT22;31270;48.328;10.096;2024-03-23T05:55:09;10.00;99.90
45549;DHT22;31270;48.328;10.096;2024-03-23T05:57:53;10.00;99.90
45549;DHT22;31270;48.328;10.096;2024-03-23T06:00:37;10.00;99.90
45549;DHT22;31270;48.328;10.096;2024-03-23T06:03:21;10.00;99.90
45549;DHT22;31270;48.328;10.096;2024-03-23T06:06:05;10.10;99.90
45549;DHT22;31270;48.328;10.096;2024-03-23T06:08:55;10.10;99.90
45549;DHT22;31270;48.328;10.096;2024-03-23T06:11:39;10.20;99.90
45549;DHT22;31270;48.328;10.096;2024-03-23T06:14:23;10.10;99.90
45549;DHT22;31270;48.328;10.096;2024-03-23T06:17:07;10.20;99.90
45549;DHT22;31270;48.328;10.096;2024-03-23T06:19:52;10.20;99.90
45549;DHT22;31270;48.328;10.096;2024-03-23T06:22:36;10.20;99.90
45549;DHT22;31270;48.328;10.096;2024-03-23T06:25:20;10.30;99.90
45549;DHT22;31270;48.328;10.096;2024-03-23T06:28:05;10.30;99.90
45549;DHT22;31270;48.328;10.096;2024-03-23T06:30:49;10.20;99.90
45549;DHT22;31270;48.328;10.096;2024-03-23T06:33:33;10.20;99.90
45549;DHT22;31270;48.328;10.096;2024-03-23T06:36:17;10.30;99.90
45549;DHT22;31270;48.328;10.096;2024-03-23T06:39:03;10.30;99.90
45549;DHT22;31270;48.328;10.096;2024-03-23T06:41:54;10.40;99.90
45549;DHT22;31270;48.328;10.096;2024-03-23T06:44:39;10.40;99.90
45549;DHT22;31270;48.328;10.096;2024-03-23T06:47:23;10.40;99.90
45549;DHT22;31270;48.328;10.096;2024-03-23T06:50:09;10.00;99.90
45549;DHT22;31270;48.328;10.096;2024-03-23T06:52:54;9.80;99.90
45549;DHT22;31270;48.328;10.096;2024-03-23T06:55:38;9.50;99.90
45549;DHT22;31270;48.328;10.096;2024-03-23T06:58:23;9.40;99.90
45549;DHT22;31270;48.328;10.096;2024-03-23T07:01:07;9.40;99.90
45549;DHT22;31270;48.328;10.096;2024-03-23T07:03:51;9.50;99.90
45549;DHT22;31270;48.328;10.096;2024-03-23T07:06:45;9.40;99.90
45549;DHT22;31270;48.328;10.096;2024-03-23T07:09:29;9.30;99.90
45549;DHT22;31270;48.328;10.096;2024-03-23T07:12:13;9.30;99.90
45549;DHT22;31270;48.328;10.096;2024-03-23T07:14:58;9.30;99.90
45549;DHT22;31270;48.328;10.096;2024-03-23T07:17:42;9.30;99.90
45549;DHT22;31270;48.328;10.096;2024-03-23T07:20:26;9.30;99.90
45549;DHT22;31270;48.328;10.096;2024-03-23T07:23:11;9.30;99.90
45549;DHT22;31270;48.328;10.096;2024-03-23T07:26:02;9.30;99.90
45549;DHT22;31270;48.328;10.096;2024-03-23T07:28:47;9.30;99.90
45549;DHT22;31270;48.328;10.096;2024-03-23T07:31:33;9.20;99.90
45549;DHT22;31270;48.328;10.096;2024-03-23T07:34:17;9.40;99.90
45549;DHT22;31270;48.328;10.096;2024-03-23T07:37:01;9.20;99.90
45549;DHT22;31270;48.328;10.096;2024-03-23T07:39:46;9.30;99.90
45549;DHT22;31270;48.328;10.096;2024-03-23T07:42:30;9.20;99.90
45549;DHT22;31270;48.328;10.096;2024-03-23T07:45:14;9.20;99.90
45549;DHT22;31270;48.328;10.096;2024-03-23T07:47:59;9.20;99.90
45549;DHT22;31270;48.328;10.096;2024-03-23T07:50:43;9.10;99.90
45549;DHT22;31270;48.328;10.096;2024-03-23T07:53:28;9.10;99.90
45549;DHT22;31270;48.328;10.096;2024-03-23T07:56:12;9.10;99.90
45549;DHT22;31270;48.328;10.096;2024-03-23T07:58:59;9.00;99.90
45549;DHT22;31270;48.328;10.096;2024-03-23T08:01:44;9.00;99.90
45549;DHT22;31270;48.328;10.096;2024-03-23T08:04:28;8.90;99.90
45549;DHT22;31270;48.328;10.096;2024-03-23T08:07:12;8.80;99.90
45549;DHT22;31270;48.328;10.096;2024-03-23T08:09:56;8.70;99.90
45549;DHT22;31270;48.328;10.096;2024-03-23T08:12:40;8.70;99.90
45549;DHT22;31270;48.328;10.096;2024-03-23T08:15:24;8.60;99.90
45549;DHT22;31270;48.328;10.096;2024-03-23T08:18:09;8.60;99.90
45549;DHT22;31270;48.328;10.096;2024-03-23T08:21:04;8.60;99.90
45549;DHT22;31270;48.328;10.096;2024-03-23T08:23:48;8.70;99.90
45549;DHT22;31270;48.328;10.096;2024-03-23T08:26:33;8.60;99.90
45549;DHT22;31270;48.328;10.096;2024-03-23T08:29:17;8.60;99.90
45549;DHT22;31270;48.328;10.096;2024-03-23T08:32:01;8.50;99.90
45549;DHT22;31270;48.328;10.096;2024-03-23T08:34:45;8.70;99.90
45549;DHT22;31270;48.328;10.096;2024-03-23T08:37:29;8.80;99.90
45549;DHT22;31270;48.328;10.096;2024-03-23T08:40:13;8.80;99.90
45549;DHT22;31270;48.328;10.096;2024-03-23T08:42:57;8.90;99.90
45549;DHT22;31270;48.328;10.096;2024-03-23T08:45:41;8.90;99.90
45549;DHT22;31270;48.328;10.096;2024-03-23T08:48:25;8.90;99.90
45549;DHT22;31270;48.328;10.096;2024-03-23T08:51:11;9.00;99.90
45549;DHT22;31270;48.328;10.096;2024-03-23T08:53:55;9.00;99.90
45549;DHT22;31270;48.328;10.096;2024-03-23T08:56:39;9.00;99.90
45549;DHT22;31270;48.328;10.096;2024-03-23T08:59:23;9.10;99.90
45549;DHT22;31270;48.328;10.096;2024-03-23T09:02:07;9.20;99.90
45549;DHT22;31270;48.328;10.096;2024-03-23T09:04:52;9.40;99.90
45549;DHT22;31270;48.328;10.096;2024-03-23T09:07:36;9.50;99.90
45549;DHT22;31270;48.328;10.096;2024-03-23T09:10:21;9.50;99.90
45549;DHT22;31270;48.328;10.096;2024-03-23T09:13:06;9.60;99.90
45549;DHT22;31270;48.328;10.096;2024-03-23T09:15:52;9.50;99.90
45549;DHT22;31270;48.328;10.096;2024-03-23T09:18:40;9.40;99.90
45549;DHT22;31270;48.328;10.096;2024-03-23T09:21:24;9.30;99.90
45549;DHT22;31270;48.328;10.096;2024-03-23T09:24:08;9.20;99.90
45549;DHT22;31270;48.328;10.096;2024-03-23T09:26:53;9.00;99.90
45549;DHT22;31270;48.328;10.096;2024-03-23T09:29:37;9.00;99.90
45549;DHT22;31270;48.328;10.096;2024-03-23T09:32:21;9.30;99.90
45549;DHT22;31270;48.328;10.096;2024-03-23T09:35:05;9.30;99.90
45549;DHT22;31270;48.328;10.096;2024-03-23T09:37:49;9.40;99.90
45549;DHT22;31270;48.328;10.096;2024-03-23T09:40:34;9.70;99.90
45549;DHT22;31270;48.328;10.096;2024-03-23T09:43:18;9.80;99.90
45549;DHT22;31270;48.328;10.096;2024-03-23T09:46:02;10.00;99.90
45549;DHT22;31270;48.328;10.096;2024-03-23T09:48:47;10.20;99.90
45549;DHT22;31270;48.328;10.096;2024-03-23T09:51:32;10.40;99.90
45549;DHT22;31270;48.328;10.096;2024-03-23T09:54:16;10.50;99.90
45549;DHT22;31270;48.328;10.096;2024-03-23T09:57:00;10.90;99.90
45549;DHT22;31270;48.328;10.096;2024-03-23T09:59:44;11.20;99.90
45549;DHT22;31270;48.328;10.096;2024-03-23T10:02:29;11.30;99.90
45549;DHT22;31270;48.328;10.096;2024-03-23T10:05:21;11.20;99.90
45549;DHT22;31270;48.328;10.096;2024-03-23T10:11:12;11.30;99.90
45549;DHT22;31270;48.328;10.096;2024-03-23T10:13:57;11.30;99.90
45549;DHT22;31270;48.328;10.096;2024-03-23T10:16:41;11.30;99.90
45549;DHT22;31270;48.328;10.096;2024-03-23T10:19:31;11.50;99.90
45549;DHT22;31270;48.328;10.096;2024-03-23T10:22:23;11.60;99.90
45549;DHT22;31270;48.328;10.096;2024-03-23T10:25:09;11.30;99.90
45549;DHT22;31270;48.328;10.096;2024-03-23T10:28:00;10.90;99.90
45549;DHT22;31270;48.328;10.096;2024-03-23T10:30:45;11.00;99.90
45549;DHT22;31270;48.328;10.096;2024-03-23T10:33:29;10.90;99.90
45549;DHT22;31270;48.328;10.096;2024-03-23T10:36:14;10.60;99.90
45549;DHT22;31270;48.328;10.096;2024-03-23T10:38:59;10.50;99.90
45549;DHT22;31270;48.328;10.096;2024-03-23T10:41:44;10.50;99.90
45549;DHT22;31270;48.328;10.096;2024-03-23T10:44:30;10.40;99.90
45549;DHT22;31270;48.328;10.096;2024-03-23T10:47:14;10.30;99.90
45549;DHT22;31270;48.328;10.096;2024-03-23T10:49:59;10.00;99.90
45549;DHT22;31270;48.328;10.096;2024-03-23T10:52:46;10.00;99.90
45549;DHT22;31270;48.328;10.096;2024-03-23T10:55:30;9.90;99.90
45549;DHT22;31270;48.328;10.096;2024-03-23T10:58:16;10.20;99.90
45549;DHT22;31270;48.328;10.096;2024-03-23T11:01:02;10.50;99.90
45549;DHT22;31270;48.328;10.096;2024-03-23T11:03:47;10.70;99.90
45549;DHT22;31270;48.328;10.096;2024-03-23T11:06:36;10.60;99.90
45549;DHT22;31270;48.328;10.096;2024-03-23T11:09:40;10.50;99.90
45549;DHT22;31270;48.328;10.096;2024-03-23T11:12:26;10.30;99.90
45549;DHT22;31270;48.328;10.096;2024-03-23T11:15:14;10.30;99.90
45549;DHT22;31270;48.328;10.096;2024-03-23T11:18:21;10.40;99.90
45549;DHT22;31270;48.328;10.096;2024-03-23T11:21:09;10.70;99.90
45549;DHT22;31270;48.328;10.096;2024-03-23T11:23:53;11.00;99.90
45549;DHT22;31270;48.328;10.096;2024-03-23T11:26:38;11.00;99.90
45549;DHT22;31270;48.328;10.096;2024-03-23T11:29:23;11.00;99.90
45549;DHT22;31270;48.328;10.096;2024-03-23T11:32:09;11.00;99.90
45549;DHT22;31270;48.328;10.096;2024-03-23T11:34:54;11.00;99.90
45549;DHT22;31270;48.328;10.096;2024-03-23T11:37:38;10.70;99.90
45549;DHT22;31270;48.328;10.096;2024-03-23T11:40:22;10.60;99.90
45549;DHT22;31270;48.328;10.096;2024-03-23T11:43:12;10.60;99.90
45549;DHT22;31270;48.328;10.096;2024-03-23T11:45:56;10.70;99.90
45549;DHT22;31270;48.328;10.096;2024-03-23T11:48:49;10.80;99.90
45549;DHT22;31270;48.328;10.096;2024-03-23T11:51:35;10.70;99.90
45549;DHT22;31270;48.328;10.096;2024-03-23T11:54:26;10.60;99.90
45549;DHT22;31270;48.328;10.096;2024-03-23T11:57:10;10.70;99.90
45549;DHT22;31270;48.328;10.096;2024-03-23T11:59:55;10.80;99.90
45549;DHT22;31270;48.328;10.096;2024-03-23T12:02:38;10.90;99.90
45549;DHT22;31270;48.328;10.096;2024-03-23T12:05:23;11.00;99.90
45549;DHT22;31270;48.328;10.096;2024-03-23T12:11:11;10.70;99.90
45549;DHT22;31270;48.328;10.096;2024-03-23T12:13:59;10.60;99.90
45549;DHT22;31270;48.328;10.096;2024-03-23T12:16:43;10.00;99.90
45549;DHT22;31270;48.328;10.096;2024-03-23T12:19:28;9.30;99.90
45549;DHT22;31270;48.328;10.096;2024-03-23T12:22:12;9.20;99.90
45549;DHT22;31270;48.328;10.096;2024-03-23T12:24:56;8.80;99.90
45549;DHT22;31270;48.328;10.096;2024-03-23T12:27:40;8.80;99.90
45549;DHT22;31270;48.328;10.096;2024-03-23T12:30:24;8.90;99.90
45549;DHT22;31270;48.328;10.096;2024-03-23T12:33:08;8.90;99.90
45549;DHT22;31270;48.328;10.096;2024-03-23T12:35:53;8.80;99.90
45549;DHT22;31270;48.328;10.096;2024-03-23T12:38:37;8.80;99.90
45549;DHT22;31270;48.328;10.096;2024-03-23T12:41:21;9.00;99.90
45549;DHT22;31270;48.328;10.096;2024-03-23T12:44:07;9.10;99.90
45549;DHT22;31270;48.328;10.096;2024-03-23T12:46:54;8.90;99.90
45549;DHT22;31270;48.328;10.096;2024-03-23T12:49:38;8.70;99.90
45549;DHT22;31270;48.328;10.096;2024-03-23T12:52:22;8.40;99.90
45549;DHT22;31270;48.328;10.096;2024-03-23T12:55:08;8.50;99.90
45549;DHT22;31270;48.328;10.096;2024-03-23T12:57:52;8.70;99.90
45549;DHT22;31270;48.328;10.096;2024-03-23T13:00:36;9.10;99.90
45549;DHT22;31270;48.328;10.096;2024-03-23T13:03:20;9.30;99.90
45549;DHT22;31270;48.328;10.096;2024-03-23T13:06:04;9.30;99.90
45549;DHT22;31270;48.328;10.096;2024-03-23T13:08:51;9.20;99.90
45549;DHT22;31270;48.328;10.096;2024-03-23T13:11:38;9.20;99.90
45549;DHT22;31270;48.328;10.096;2024-03-23T13:14:22;9.70;99.90
45549;DHT22;31270;48.328;10.096;2024-03-23T13:17:07;9.70;99.90
45549;DHT22;31270;48.328;10.096;2024-03-23T13:19:51;9.50;99.90
45549;DHT22;31270;48.328;10.096;2024-03-23T13:22:35;9.50;99.90
45549;DHT22;31270;48.328;10.096;2024-03-23T13:25:19;9.70;99.90
45549;DHT22;31270;48.328;10.096;2024-03-23T13:28:04;9.50;99.90
45549;DHT22;31270;48.328;10.096;2024-03-23T13:30:56;9.40;99.90
45549;DHT22;31270;48.328;10.096;2024-03-23T13:33:41;9.40;99.90
45549;DHT22;31270;48.328;10.096;2024-03-23T13:36:28;9.20;99.90
45549;DHT22;31270;48.328;10.096;2024-03-23T13:39:12;9.00;99.90
45549;DHT22;31270;48.328;10.096;2024-03-23T13:41:56;9.10;99.90
45549;DHT22;31270;48.328;10.096;2024-03-23T13:44:40;9.00;99.90
45549;DHT22;31270;48.328;10.096;2024-03-23T13:47:25;9.20;99.90
45549;DHT22;31270;48.328;10.096;2024-03-23T13:50:09;9.60;99.90
45549;DHT22;31270;48.328;10.096;2024-03-23T13:52:53;9.70;99.90
45549;DHT22;31270;48.328;10.096;2024-03-23T13:55:37;9.80;99.90
45549;DHT22;31270;48.328;10.096;2024-03-23T13:58:21;10.00;99.90
45549;DHT22;31270;48.328;10.096;2024-03-23T14:01:06;10.00;99.90
45549;DHT22;31270;48.328;10.096;2024-03-23T14:03:51;9.60;99.90
45549;DHT22;31270;48.328;10.096;2024-03-23T14:06:35;9.40;99.90
45549;DHT22;31270;48.328;10.096;2024-03-23T14:09:19;9.20;99.90
45549;DHT22;31270;48.328;10.096;2024-03-23T14:12:06;9.00;99.90
45549;DHT22;31270;48.328;10.096;2024-03-23T14:14:53;8.90;99.90
45549;DHT22;31270;48.328;10.096;2024-03-23T14:17:38;8.80;99.90
45549;DHT22;31270;48.328;10.096;2024-03-23T14:20:23;8.80;99.90
45549;DHT22;31270;48.328;10.096;2024-03-23T14:23:10;8.70;99.90
45549;DHT22;31270;48.328;10.096;2024-03-23T14:25:54;8.60;99.90
45549;DHT22;31270;48.328;10.096;2024-03-23T14:28:38;8.70;99.90
45549;DHT22;31270;48.328;10.096;2024-03-23T14:31:24;8.80;99.90
45549;DHT22;31270;48.328;10.096;2024-03-23T14:34:09;8.90;99.90
45549;DHT22;31270;48.328;10.096;2024-03-23T14:36:54;9.00;99.90
45549;DHT22;31270;48.328;10.096;2024-03-23T14:39:38;9.20;99.90
45549;DHT22;31270;48.328;10.096;2024-03-23T14:42:23;9.30;99.90
45549;DHT22;31270;48.328;10.096;2024-03-23T14:45:08;9.30;99.90
45549;DHT22;31270;48.328;10.096;2024-03-23T14:47:52;9.30;99.90
45549;DHT22;31270;48.328;10.096;2024-03-23T14:50:36;9.30;99.90
45549;DHT22;31270;48.328;10.096;2024-03-23T14:53:21;9.40;99.90
45549;DHT22;31270;48.328;10.096;2024-03-23T14:56:05;9.30;99.90
45549;DHT22;31270;48.328;10.096;2024-03-23T14:58:52;9.30;99.90
45549;DHT22;31270;48.328;10.096;2024-03-23T15:01:37;9.20;99.90
45549;DHT22;31270;48.328;10.096;2024-03-23T15:04:21;9.00;99.90
45549;DHT22;31270;48.328;10.096;2024-03-23T15:07:05;9.00;99.90
45549;DHT22;31270;48.328;10.096;2024-03-23T15:09:49;9.00;99.90
45549;DHT22;31270;48.328;10.096;2024-03-23T15:12:33;9.00;99.90
45549;DHT22;31270;48.328;10.096;2024-03-23T15:15:17;9.20;99.90
45549;DHT22;31270;48.328;10.096;2024-03-23T15:18:01;9.30;99.90
45549;DHT22;31270;48.328;10.096;2024-03-23T15:20:56;9.30;99.90
45549;DHT22;31270;48.328;10.096;2024-03-23T15:23:40;9.30;99.90
45549;DHT22;31270;48.328;10.096;2024-03-23T15:26:27;9.20;99.90
45549;DHT22;31270;48.328;10.096;2024-03-23T15:29:11;9.20;99.90
45549;DHT22;31270;48.328;10.096;2024-03-23T15:31:59;9.20;99.90
45549;DHT22;31270;48.328;10.096;2024-03-23T15:34:45;9.30;99.90
45549;DHT22;31270;48.328;10.096;2024-03-23T15:37:31;9.30;99.90
45549;DHT22;31270;48.328;10.096;2024-03-23T15:40:15;9.30;99.90
45549;DHT22;31270;48.328;10.096;2024-03-23T15:42:59;9.40;99.90
45549;DHT22;31270;48.328;10.096;2024-03-23T15:45:44;9.40;99.90
45549;DHT22;31270;48.328;10.096;2024-03-23T15:48:37;9.20;99.90
45549;DHT22;31270;48.328;10.096;2024-03-23T15:51:21;9.10;99.90
45549;DHT22;31270;48.328;10.096;2024-03-23T15:54:05;8.90;99.90
45549;DHT22;31270;48.328;10.096;2024-03-23T15:56:49;8.90;99.90
45549;DHT22;31270;48.328;10.096;2024-03-23T15:59:33;8.70;99.90
45549;DHT22;31270;48.328;10.096;2024-03-23T16:02:17;8.60;99.90
45549;DHT22;31270;48.328;10.096;2024-03-23T16:05:02;8.50;99.90
45549;DHT22;31270;48.328;10.096;2024-03-23T16:07:47;8.30;99.90
45549;DHT22;31270;48.328;10.096;2024-03-23T16:10:31;8.10;99.90
45549;DHT22;31270;48.328;10.096;2024-03-23T16:13:17;8.00;99.90
45549;DHT22;31270;48.328;10.096;2024-03-23T16:16:06;7.40;99.90
45549;DHT22;31270;48.328;10.096;2024-03-23T16:18:54;6.50;99.90
45549;DHT22;31270;48.328;10.096;2024-03-23T16:21:38;6.00;99.90
45549;DHT22;31270;48.328;10.096;2024-03-23T16:24:22;6.00;99.90
45549;DHT22;31270;48.328;10.096;2024-03-23T16:27:06;5.90;99.90
45549;DHT22;31270;48.328;10.096;2024-03-23T16:29:50;5.70;99.90
45549;DHT22;31270;48.328;10.096;2024-03-23T16:32:34;5.70;99.90
45549;DHT22;31270;48.328;10.096;2024-03-23T16:35:21;5.60;99.90
45549;DHT22;31270;48.328;10.096;2024-03-23T16:38:05;5.40;99.90
45549;DHT22;31270;48.328;10.096;2024-03-23T16:40:59;5.40;99.90
45549;DHT22;31270;48.328;10.096;2024-03-23T16:43:45;5.40;99.90
45549;DHT22;31270;48.328;10.096;2024-03-23T16:46:29;5.50;99.90
45549;DHT22;31270;48.328;10.096;2024-03-23T16:49:13;5.60;99.90
45549;DHT22;31270;48.328;10.096;2024-03-23T16:51:57;5.60;99.90
45549;DHT22;31270;48.328;10.096;2024-03-23T16:54:41;5.70;99.90
45549;DHT22;31270;48.328;10.096;2024-03-23T16:57:25;5.50;99.90
45549;DHT22;31270;48.328;10.096;2024-03-23T17:00:09;5.40;99.90
45549;DHT22;31270;48.328;10.096;2024-03-23T17:02:55;5.40;99.90
45549;DHT22;31270;48.328;10.096;2024-03-23T17:05:39;5.30;99.90
45549;DHT22;31270;48.328;10.096;2024-03-23T17:08:24;5.30;99.90
45549;DHT22;31270;48.328;10.096;2024-03-23T17:11:08;5.20;99.90
45549;DHT22;31270;48.328;10.096;2024-03-23T17:13:53;5.20;99.90
45549;DHT22;31270;48.328;10.096;2024-03-23T17:16:39;5.10;99.90
45549;DHT22;31270;48.328;10.096;2024-03-23T17:19:23;4.90;99.90
45549;DHT22;31270;48.328;10.096;2024-03-23T17:22:10;4.80;99.90
45549;DHT22;31270;48.328;10.096;2024-03-23T17:24:56;4.80;99.90
45549;DHT22;31270;48.328;10.096;2024-03-23T17:27:40;4.80;99.90
45549;DHT22;31270;48.328;10.096;2024-03-23T17:30:24;4.80;99.90
45549;DHT22;31270;48.328;10.096;2024-03-23T17:33:10;4.70;99.90
45549;DHT22;31270;48.328;10.096;2024-03-23T17:35:54;4.60;99.90
45549;DHT22;31270;48.328;10.096;2024-03-23T17:38:38;4.70;99.90
45549;DHT22;31270;48.328;10.096;2024-03-23T17:41:23;4.70;99.90
45549;DHT22;31270;48.328;10.096;2024-03-23T17:44:09;4.70;99.90
45549;DHT22;31270;48.328;10.096;2024-03-23T17:46:54;4.80;99.90
45549;DHT22;31270;48.328;10.096;2024-03-23T17:49:38;4.80;99.90
45549;DHT22;31270;48.328;10.096;2024-03-23T17:52:22;4.80;99.90
45549;DHT22;31270;48.328;10.096;2024-03-23T17:55:06;4.70;99.90
45549;DHT22;31270;48.328;10.096;2024-03-23T17:57:50;4.70;99.90
45549;DHT22;31270;48.328;10.096;2024-03-23T18:00:35;4.70;99.90
45549;DHT22;31270;48.328;10.096;2024-03-23T18:03:19;4.70;99.90
45549;DHT22;31270;48.328;10.096;2024-03-23T18:06:03;4.60;99.90
45549;DHT22;31270;48.328;10.096;2024-03-23T18:08:49;4.50;99.90
45549;DHT22;31270;48.328;10.096;2024-03-23T18:11:33;4.50;99.90
45549;DHT22;31270;48.328;10.096;2024-03-23T18:14:18;4.50;99.90
45549;DHT22;31270;48.328;10.096;2024-03-23T18:17:02;4.50;99.90